Terminal Aerodrome Forecast
Issued by NWS

Current Version | Previous Version | Text Only | Print | Product List | Glossary On
Versions: 1 2 3 4 5 6 7 8 9 10 11 12 13
241
FTUS42 KMLB 250537
TAFISM
TAF
KISM 250537Z 2506/2606 VRB03KT P6SM FEW018 SCT250
     FM251500 05006KT P6SM SCT025 SCT250
     FM252100 09009KT P6SM VCTS SCT030CB BKN100
     FM260000 10006KT P6SM FEW050 BKN250=

USA.gov is the U.S. government's official web portal to all federal, state and local government web resources and services.